Airport View

Enter AWOS ICAO identifier for current METAR.

ex. KFNL

K1A6 080515Z AUTO 00000KT 10SM CLR 22/22 A3002 RMK AO2 T02160216

8 Jul 2020 05:35

Frequency: 119.425

Phone: 606-248-3095

Other Area AWOS: KI35 - KBYL - K0VG - KJAU

TAF KLOZ 072330Z 0800/0824 VRB03KT P6SM VCTS FEW050CB SCT250 FM080200 VRB03KT P6SM SCT250 FM081600 VRB03KT P6SM SCT040 SCT250